createdAt,value
2018-05-25T00:02:22.024Z,18.77
2018-05-25T00:04:55.676Z,19.27
2018-05-25T00:07:29.252Z,19.57
2018-05-25T00:10:02.792Z,20.07
2018-05-25T00:12:36.485Z,20.07
2018-05-25T00:15:09.992Z,19.90
2018-05-25T00:17:43.748Z,19.53
2018-05-25T00:20:17.543Z,20.17
2018-05-25T00:22:51.152Z,20.37
2018-05-25T00:25:24.837Z,20.00
2018-05-25T00:27:58.580Z,20.03
2018-05-25T00:30:32.155Z,19.93
2018-05-25T00:33:05.741Z,20.13
2018-05-25T00:35:39.569Z,20.23
2018-05-25T00:38:13.352Z,20.13
2018-05-25T00:40:46.894Z,19.70
2018-05-25T00:43:20.660Z,20.17
2018-05-25T00:45:54.274Z,21.90
2018-05-25T00:48:27.915Z,20.37
2018-05-25T00:51:01.560Z,20.90
2018-05-25T00:53:35.229Z,20.80
2018-05-25T00:56:08.800Z,20.83
2018-05-25T00:58:42.533Z,21.10
2018-05-25T01:01:16.392Z,19.50
2018-05-25T01:03:50.181Z,19.80
2018-05-25T01:06:24.031Z,20.43
2018-05-25T01:08:57.641Z,20.93
2018-05-25T01:11:31.404Z,20.67
2018-05-25T01:14:05.005Z,20.17
2018-05-25T01:16:38.731Z,19.80
2018-05-25T01:19:12.272Z,19.87
2018-05-25T01:21:45.872Z,20.40
2018-05-25T01:24:19.432Z,20.43
2018-05-25T01:26:52.950Z,20.77
2018-05-25T01:29:26.684Z,19.93
2018-05-25T01:32:00.265Z,20.00
2018-05-25T01:34:33.982Z,21.03
2018-05-25T01:37:07.610Z,20.63
2018-05-25T01:39:41.263Z,20.73
2018-05-25T01:42:14.796Z,21.23
2018-05-25T01:44:48.535Z,20.90
2018-05-25T01:47:22.183Z,20.70
2018-05-25T01:49:55.868Z,19.80
2018-05-25T01:52:29.611Z,20.70
2018-05-25T01:55:03.280Z,20.30
2018-05-25T01:57:38.108Z,21.10
2018-05-25T02:00:11.836Z,20.40
2018-05-25T02:02:45.364Z,19.03
2018-05-25T02:05:18.934Z,20.10
2018-05-25T02:07:52.712Z,20.80
2018-05-25T02:10:26.401Z,21.67
2018-05-25T02:13:00.066Z,20.40
2018-05-25T02:15:33.588Z,20.97
2018-05-25T02:18:07.289Z,21.43
2018-05-25T02:20:40.991Z,21.60
2018-05-25T02:23:14.631Z,21.03
2018-05-25T02:25:48.376Z,21.47
2018-05-25T02:28:22.052Z,20.37
2018-05-25T02:30:55.583Z,21.23
2018-05-25T02:33:29.140Z,21.20
2018-05-25T02:36:02.797Z,20.77
2018-05-25T02:38:36.389Z,21.90
2018-05-25T02:41:09.875Z,21.20
2018-05-25T02:43:43.421Z,21.10
2018-05-25T02:46:17.168Z,21.73
2018-05-25T02:48:50.890Z,20.87
2018-05-25T02:51:24.564Z,20.73
2018-05-25T02:53:58.283Z,21.87
2018-05-25T02:56:32.068Z,21.43
2018-05-25T02:59:05.758Z,21.73
2018-05-25T03:01:39.474Z,22.30
2018-05-25T03:04:13.168Z,22.23
2018-05-25T03:06:46.892Z,22.13
2018-05-25T03:09:20.400Z,23.40
2018-05-25T03:11:54.121Z,22.77
2018-05-25T03:14:27.691Z,22.63
2018-05-25T03:17:01.552Z,23.03
2018-05-25T03:19:35.108Z,22.73
2018-05-25T03:22:08.768Z,23.37
2018-05-25T03:24:42.447Z,23.30
2018-05-25T03:27:15.988Z,23.17
2018-05-25T03:29:49.724Z,23.37
2018-05-25T03:32:23.312Z,22.70
2018-05-25T03:34:57.007Z,23.93
2018-05-25T03:37:30.536Z,23.77
2018-05-25T03:40:04.178Z,21.77
2018-05-25T03:42:37.932Z,23.97
2018-05-25T03:45:11.732Z,22.30
2018-05-25T03:47:45.361Z,22.87
2018-05-25T03:50:18.855Z,23.27
2018-05-25T03:52:52.512Z,22.57
2018-05-25T03:55:26.272Z,23.10
2018-05-25T03:58:00.005Z,23.13
2018-05-25T04:00:45.404Z,23.53
2018-05-25T04:03:19.180Z,22.93
2018-05-25T04:05:52.736Z,23.13
2018-05-25T04:08:26.416Z,22.83
2018-05-25T04:10:59.912Z,23.40
2018-05-25T04:13:33.700Z,22.93
2018-05-25T04:16:07.325Z,23.80
2018-05-25T04:18:40.874Z,23.17
2018-05-25T04:21:14.519Z,21.97
2018-05-25T04:23:48.284Z,22.67
2018-05-25T04:26:21.930Z,23.87
2018-05-25T04:28:55.594Z,22.97
2018-05-25T04:31:29.298Z,23.87
2018-05-25T04:34:02.874Z,21.57
2018-05-25T04:36:36.619Z,22.20
2018-05-25T04:39:10.396Z,22.80
2018-05-25T04:41:44.052Z,21.53
2018-05-25T04:44:17.634Z,22.50
2018-05-25T04:46:51.402Z,20.77
2018-05-25T04:49:24.981Z,22.53
2018-05-25T04:51:58.628Z,22.57
2018-05-25T04:54:32.330Z,22.47
2018-05-25T04:57:05.897Z,22.13
2018-05-25T04:59:39.671Z,20.93
2018-05-25T05:02:13.245Z,20.63
2018-05-25T05:04:46.967Z,20.33
2018-05-25T05:07:20.652Z,20.63
2018-05-25T05:09:54.268Z,21.13
2018-05-25T05:12:27.914Z,19.93
2018-05-25T05:15:01.728Z,21.10
2018-05-25T05:17:35.228Z,21.00
2018-05-25T05:20:08.974Z,20.60
2018-05-25T05:22:42.604Z,20.97
2018-05-25T05:25:16.241Z,21.00
2018-05-25T05:27:49.744Z,20.57
2018-05-25T05:30:23.404Z,20.07
2018-05-25T05:32:56.973Z,20.47
2018-05-25T05:35:30.685Z,19.03
2018-05-25T05:38:04.298Z,19.50
2018-05-25T05:40:38.155Z,19.60
2018-05-25T05:43:12.007Z,18.60
2018-05-25T05:45:45.644Z,18.83
2018-05-25T05:48:19.388Z,17.03
2018-05-25T05:50:53.064Z,18.27
2018-05-25T05:53:26.666Z,18.30
2018-05-25T05:56:00.506Z,17.60
2018-05-25T05:58:34.172Z,17.43
2018-05-25T06:01:07.744Z,17.77
2018-05-25T06:03:41.243Z,18.17
2018-05-25T06:06:14.908Z,17.87
2018-05-25T06:08:49.021Z,18.67
2018-05-25T06:11:22.919Z,19.60
2018-05-25T06:13:56.469Z,17.70
2018-05-25T06:16:30.151Z,16.97
2018-05-25T06:19:03.936Z,18.30
2018-05-25T06:21:37.580Z,17.17
2018-05-25T06:24:11.512Z,16.87
2018-05-25T06:26:45.203Z,15.90
2018-05-25T06:29:18.914Z,17.50
2018-05-25T06:31:52.420Z,15.80
2018-05-25T06:34:25.972Z,16.67
2018-05-25T06:36:59.515Z,16.97
2018-05-25T06:39:33.079Z,18.50
2018-05-25T06:42:06.868Z,17.23
2018-05-25T06:44:40.624Z,18.27
2018-05-25T06:47:14.196Z,17.47
2018-05-25T06:49:47.714Z,16.90
2018-05-25T06:52:21.453Z,16.23
2018-05-25T06:54:55.265Z,17.83
2018-05-25T06:57:28.985Z,16.17
2018-05-25T07:00:02.653Z,17.30
2018-05-25T07:02:36.312Z,15.77
2018-05-25T07:05:10.087Z,15.90
2018-05-25T07:07:43.859Z,17.23
2018-05-25T07:10:17.565Z,16.10
2018-05-25T07:12:51.205Z,15.27
2018-05-25T07:15:24.748Z,15.20
2018-05-25T07:18:04.285Z,15.70
2018-05-25T07:20:38.030Z,15.23
2018-05-25T07:23:11.703Z,14.83
2018-05-25T07:25:45.393Z,14.30
2018-05-25T07:28:19.276Z,16.30
2018-05-25T07:30:53.030Z,17.17
2018-05-25T07:33:26.855Z,16.53
2018-05-25T07:36:00.497Z,16.83
2018-05-25T07:38:34.122Z,17.83
2018-05-25T07:41:07.753Z,19.97
2018-05-25T07:43:41.325Z,17.53
2018-05-25T07:46:14.955Z,16.37
2018-05-25T07:48:48.672Z,16.20
2018-05-25T07:51:22.596Z,16.63
2018-05-25T07:53:56.293Z,16.67
2018-05-25T07:56:29.993Z,15.70
2018-05-25T07:59:03.624Z,16.27
2018-05-25T08:01:37.493Z,18.03
2018-05-25T08:04:11.105Z,17.67
2018-05-25T08:06:44.905Z,16.87
2018-05-25T08:09:18.666Z,17.73
2018-05-25T08:11:52.284Z,17.03
2018-05-25T08:14:25.900Z,15.27
2018-05-25T08:17:00.329Z,16.93
2018-05-25T08:19:34.157Z,15.90
2018-05-25T08:22:07.836Z,14.77
2018-05-25T08:24:41.511Z,15.97
2018-05-25T08:27:15.259Z,16.60
2018-05-25T08:29:49.052Z,16.63
2018-05-25T08:32:22.681Z,14.57
2018-05-25T08:34:56.296Z,16.63
2018-05-25T08:37:29.969Z,16.13
2018-05-25T08:40:03.802Z,14.57
2018-05-25T08:42:37.624Z,15.27
2018-05-25T08:45:11.460Z,16.67
2018-05-25T08:47:45.175Z,16.27
2018-05-25T08:50:18.908Z,14.60
2018-05-25T08:52:52.527Z,15.80
2018-05-25T08:55:26.243Z,16.07
2018-05-25T08:57:59.869Z,15.80
2018-05-25T09:00:33.521Z,16.50
2018-05-25T09:03:07.227Z,15.17
2018-05-25T09:05:41.017Z,15.23
2018-05-25T09:08:14.745Z,14.53
2018-05-25T09:10:48.360Z,14.40
2018-05-25T09:13:22.137Z,14.23
2018-05-25T09:15:55.905Z,13.43
2018-05-25T09:18:29.473Z,13.67
2018-05-25T09:21:03.177Z,12.47
2018-05-25T09:23:36.761Z,11.40
2018-05-25T09:26:10.493Z,11.80
2018-05-25T09:28:44.239Z,9.57
2018-05-25T09:31:18.209Z,11.17
2018-05-25T09:33:51.896Z,11.83
2018-05-25T09:36:25.701Z,12.30
2018-05-25T09:38:59.433Z,12.03
2018-05-25T09:41:33.070Z,11.07
2018-05-25T09:44:06.766Z,10.67
2018-05-25T09:46:40.397Z,13.10
2018-05-25T09:49:14.105Z,12.63
2018-05-25T09:51:47.883Z,10.70
2018-05-25T09:54:21.508Z,12.17
2018-05-25T09:57:01.216Z,10.63
2018-05-25T09:59:35.034Z,9.80
2018-05-25T10:02:09.060Z,11.97
2018-05-25T10:04:42.886Z,9.93
2018-05-25T10:07:16.611Z,11.30
2018-05-25T10:09:50.343Z,10.43
2018-05-25T10:12:23.973Z,9.27
2018-05-25T10:14:57.761Z,10.37
2018-05-25T10:17:31.497Z,10.23
2018-05-25T10:20:05.172Z,10.20
2018-05-25T10:22:38.932Z,9.77
2018-05-25T10:25:12.665Z,8.60
2018-05-25T10:27:46.341Z,10.63
2018-05-25T10:30:20.059Z,10.67
2018-05-25T10:32:53.693Z,11.73
2018-05-25T10:35:27.241Z,10.53
2018-05-25T10:38:01.041Z,10.47
2018-05-25T10:40:34.770Z,9.60
2018-05-25T10:43:08.328Z,10.83
2018-05-25T10:45:42.121Z,9.43
2018-05-25T10:48:15.834Z,10.90
2018-05-25T10:50:49.437Z,10.37
2018-05-25T10:53:23.043Z,9.77
2018-05-25T10:55:56.732Z,8.30
2018-05-25T10:58:30.480Z,10.07
2018-05-25T11:01:04.137Z,9.23
2018-05-25T11:03:37.938Z,7.77
2018-05-25T11:06:11.483Z,8.40
2018-05-25T11:08:45.194Z,8.77
2018-05-25T11:11:18.997Z,8.47
2018-05-25T11:13:53.042Z,8.83
2018-05-25T11:19:26.045Z,8.27
2018-05-25T11:21:59.797Z,7.40
2018-05-25T11:24:33.436Z,8.43
2018-05-25T11:27:27.834Z,8.27
2018-05-25T11:30:01.498Z,8.53
2018-05-25T11:32:35.135Z,7.07
2018-05-25T11:35:08.839Z,8.10
2018-05-25T11:37:42.516Z,7.63
2018-05-25T11:40:16.284Z,7.70
2018-05-25T11:42:50.000Z,8.40
2018-05-25T11:45:23.554Z,7.90
2018-05-25T11:47:57.317Z,8.87
2018-05-25T11:50:31.047Z,7.93
2018-05-25T11:53:04.698Z,6.90
2018-05-25T11:55:39.599Z,7.33
2018-05-25T11:58:13.308Z,8.63
2018-05-25T12:00:47.020Z,7.83
2018-05-25T12:03:20.764Z,7.87
2018-05-25T12:05:54.493Z,9.60
2018-05-25T12:08:28.241Z,9.77
2018-05-25T12:11:01.897Z,9.23
2018-05-25T12:13:35.603Z,9.03
2018-05-25T12:16:09.442Z,9.17
2018-05-25T12:18:43.144Z,9.10
2018-05-25T12:21:16.717Z,7.90
2018-05-25T12:23:50.430Z,8.97
2018-05-25T12:26:24.135Z,8.70
2018-05-25T12:28:57.853Z,8.70
2018-05-25T12:31:31.403Z,10.00
2018-05-25T12:34:05.088Z,8.87
2018-05-25T12:36:38.776Z,8.63
2018-05-25T12:39:12.544Z,9.30
2018-05-25T12:41:46.151Z,10.63
2018-05-25T12:44:19.709Z,9.53
2018-05-25T12:46:53.460Z,9.77
2018-05-25T12:49:26.968Z,9.70
2018-05-25T12:52:00.535Z,10.00
2018-05-25T12:54:34.151Z,10.20
2018-05-25T12:57:07.847Z,10.40
2018-05-25T12:59:41.360Z,11.63
2018-05-25T13:02:14.950Z,9.07
2018-05-25T13:04:48.664Z,8.97
2018-05-25T13:07:22.456Z,9.90
2018-05-25T13:09:55.956Z,10.03
2018-05-25T13:12:29.573Z,9.27
2018-05-25T13:15:03.108Z,9.70
2018-05-25T13:17:36.908Z,9.73
2018-05-25T13:20:10.552Z,10.70
2018-05-25T13:22:44.107Z,9.57
2018-05-25T13:25:17.876Z,9.10
2018-05-25T13:27:51.455Z,8.97
2018-05-25T13:30:25.132Z,8.67
2018-05-25T13:32:58.612Z,9.33
2018-05-25T13:35:32.189Z,8.87
2018-05-25T13:38:05.763Z,9.03
2018-05-25T13:40:39.491Z,7.97
2018-05-25T13:43:13.203Z,7.60
2018-05-25T13:45:46.732Z,7.20
2018-05-25T13:48:20.564Z,7.57
2018-05-25T13:50:54.063Z,7.90
2018-05-25T13:53:27.676Z,7.70
2018-05-25T13:56:01.295Z,7.27
2018-05-25T13:58:35.043Z,7.23
2018-05-25T14:01:08.569Z,8.03
2018-05-25T14:03:42.151Z,7.00
2018-05-25T14:06:15.823Z,7.47
2018-05-25T14:08:49.419Z,7.20
2018-05-25T14:11:23.093Z,8.63
2018-05-25T14:13:56.611Z,6.07
2018-05-25T14:16:30.496Z,10.83
2018-05-25T14:19:04.170Z,7.80
2018-05-25T14:21:37.700Z,6.37
2018-05-25T14:24:11.272Z,5.43
2018-05-25T14:26:45.141Z,6.10
2018-05-25T14:29:18.684Z,4.70
2018-05-25T14:31:52.392Z,4.43
2018-05-25T14:34:26.196Z,5.40
2018-05-25T14:36:59.677Z,3.80
2018-05-25T14:39:33.429Z,4.40
2018-05-25T14:42:07.108Z,4.20
2018-05-25T14:44:40.888Z,3.67
2018-05-25T14:47:14.407Z,4.00
2018-05-25T14:49:48.091Z,4.33
2018-05-25T14:52:21.684Z,3.87
2018-05-25T14:54:55.495Z,4.03
2018-05-25T14:57:29.245Z,4.10
2018-05-25T15:00:02.853Z,4.10
2018-05-25T15:02:36.388Z,4.20
2018-05-25T15:05:10.029Z,4.33
2018-05-25T15:07:43.584Z,3.70
2018-05-25T15:10:17.224Z,4.80
2018-05-25T15:12:50.998Z,4.80
2018-05-25T15:15:24.582Z,4.90
2018-05-25T15:17:58.218Z,4.93
2018-05-25T15:20:31.870Z,4.43
2018-05-25T15:23:05.435Z,5.03
2018-05-25T15:25:39.133Z,5.00
2018-05-25T15:28:12.875Z,4.93
2018-05-25T15:30:46.482Z,5.43
2018-05-25T15:33:20.037Z,5.10
2018-05-25T15:35:53.859Z,5.37
2018-05-25T15:38:27.492Z,5.33
2018-05-25T15:41:01.292Z,5.47
2018-05-25T15:43:34.825Z,5.20
2018-05-25T15:46:08.628Z,5.30
2018-05-25T15:48:43.018Z,5.60
2018-05-25T15:51:16.591Z,5.23
2018-05-25T15:53:50.335Z,5.43
2018-05-25T15:56:23.937Z,5.50
2018-05-25T15:58:57.564Z,5.60
2018-05-25T16:01:31.090Z,5.40
2018-05-25T16:04:04.796Z,5.60
2018-05-25T16:06:38.392Z,5.17
2018-05-25T16:09:12.046Z,5.73
2018-05-25T16:11:45.589Z,5.20
2018-05-25T16:14:19.379Z,5.60
2018-05-25T16:16:52.906Z,6.00
2018-05-25T16:19:26.504Z,5.43
2018-05-25T16:22:00.032Z,5.37
2018-05-25T16:24:33.764Z,5.80
2018-05-25T16:27:07.317Z,5.73
2018-05-25T16:29:41.015Z,5.77
2018-05-25T16:32:14.553Z,7.10
2018-05-25T16:34:48.217Z,7.97
2018-05-25T16:37:21.820Z,6.07
2018-05-25T16:39:55.427Z,7.37
2018-05-25T16:42:29.044Z,5.97
2018-05-25T16:45:02.712Z,22.47
2018-05-25T16:47:36.342Z,7.23
2018-05-25T16:50:09.987Z,8.30
2018-05-25T16:52:43.612Z,6.93
2018-05-25T16:55:17.241Z,8.67
2018-05-25T16:57:50.886Z,5.60
2018-05-25T17:00:24.445Z,5.37
2018-05-25T17:02:57.956Z,6.73
2018-05-25T17:05:31.830Z,21.07
2018-05-25T17:08:05.612Z,5.73
2018-05-25T17:10:39.164Z,5.87
2018-05-25T17:13:12.836Z,5.30
2018-05-25T17:15:46.475Z,5.40
2018-05-25T17:18:19.980Z,5.60
2018-05-25T17:20:53.736Z,5.10
2018-05-25T17:23:27.236Z,5.30
2018-05-25T17:26:01.062Z,5.00
2018-05-25T17:28:34.771Z,4.70
2018-05-25T17:31:08.536Z,5.43
2018-05-25T17:33:42.378Z,5.23
2018-05-25T17:36:16.195Z,5.30
2018-05-25T17:38:49.872Z,5.50
2018-05-25T17:41:23.448Z,5.57
2018-05-25T17:43:57.007Z,5.03
2018-05-25T17:46:30.600Z,4.97
2018-05-25T17:49:04.288Z,5.37
2018-05-25T17:51:38.036Z,5.50
2018-05-25T17:54:11.573Z,6.17
2018-05-25T17:56:45.139Z,6.33
2018-05-25T17:59:18.924Z,5.87
2018-05-25T18:01:52.429Z,6.37
2018-05-25T18:04:26.050Z,5.90
2018-05-25T18:06:59.716Z,5.20
2018-05-25T18:09:33.223Z,5.83
2018-05-25T18:12:07.016Z,6.13
2018-05-25T18:14:40.757Z,5.47
2018-05-25T18:17:14.534Z,5.97
2018-05-25T18:19:48.187Z,6.50
2018-05-25T18:22:21.792Z,7.13
2018-05-25T18:24:55.500Z,5.87
2018-05-25T18:27:29.224Z,6.07
2018-05-25T18:30:02.759Z,6.37
2018-05-25T18:32:36.568Z,6.30
2018-05-25T18:35:10.283Z,6.43
2018-05-25T18:37:43.864Z,5.60
2018-05-25T18:40:17.503Z,6.20
2018-05-25T18:42:51.062Z,6.63
2018-05-25T18:45:24.991Z,6.37
2018-05-25T18:47:58.689Z,6.70
2018-05-25T18:50:32.311Z,6.20
2018-05-25T18:53:05.878Z,6.27
2018-05-25T18:55:39.528Z,6.70
2018-05-25T18:58:13.160Z,6.33
2018-05-25T19:00:46.803Z,6.67
2018-05-25T19:03:20.488Z,6.80
2018-05-25T19:05:54.197Z,6.63
2018-05-25T19:08:27.806Z,6.73
2018-05-25T19:11:01.613Z,6.97
2018-05-25T19:13:35.229Z,7.50
2018-05-25T19:16:09.048Z,7.17
2018-05-25T19:18:42.630Z,6.93
2018-05-25T19:21:16.181Z,7.43
2018-05-25T19:23:49.817Z,7.20
2018-05-25T19:26:23.393Z,7.13
2018-05-25T19:28:57.176Z,7.40
2018-05-25T19:31:30.869Z,7.50
2018-05-25T19:34:04.431Z,7.23
2018-05-25T19:36:38.056Z,6.57
2018-05-25T19:39:11.592Z,6.97
2018-05-25T19:41:45.240Z,7.17
2018-05-25T19:44:19.038Z,6.57
2018-05-25T19:46:52.668Z,7.10
2018-05-25T19:49:26.494Z,7.00
2018-05-25T19:52:00.027Z,7.20
2018-05-25T19:54:33.683Z,7.30
2018-05-25T19:57:07.435Z,8.07
2018-05-25T19:59:41.152Z,8.27
2018-05-25T20:02:15.049Z,8.23
2018-05-25T20:04:48.512Z,8.30
2018-05-25T20:07:22.079Z,8.50
2018-05-25T20:09:56.379Z,9.07
2018-05-25T20:12:29.939Z,9.97
2018-05-25T20:15:03.759Z,10.70
2018-05-25T20:17:37.439Z,9.33
2018-05-25T20:20:11.173Z,10.13
2018-05-25T20:22:44.720Z,8.83
2018-05-25T20:25:18.515Z,9.43
2018-05-25T20:27:52.235Z,8.83
2018-05-25T20:30:25.739Z,8.47
2018-05-25T20:32:59.299Z,8.03
2018-05-25T20:35:33.083Z,8.03
2018-05-25T20:38:06.740Z,7.33
2018-05-25T20:40:40.391Z,8.37
2018-05-25T20:43:14.200Z,7.87
2018-05-25T20:45:47.704Z,7.33
2018-05-25T20:48:21.280Z,7.53
2018-05-25T20:50:54.808Z,7.80
2018-05-25T20:53:28.412Z,7.37
2018-05-25T20:56:02.100Z,7.97
2018-05-25T20:58:35.891Z,7.10
2018-05-25T21:01:09.735Z,7.53
2018-05-25T21:03:43.268Z,8.03
2018-05-25T21:06:17.348Z,7.40
2018-05-25T21:08:51.006Z,7.63
2018-05-25T21:11:24.852Z,7.50
2018-05-25T21:13:58.460Z,7.20
2018-05-25T21:16:32.939Z,7.27
2018-05-25T21:19:06.719Z,7.43
2018-05-25T21:21:40.516Z,7.23
2018-05-25T21:24:14.314Z,7.10
2018-05-25T21:26:47.776Z,7.97
2018-05-25T21:29:21.507Z,7.57
2018-05-25T21:31:55.055Z,7.23
2018-05-25T21:34:28.824Z,7.30
2018-05-25T21:37:03.176Z,7.20
2018-05-25T21:39:36.861Z,7.30
2018-05-25T21:42:10.481Z,7.80
2018-05-25T21:44:44.084Z,7.10
2018-05-25T21:47:17.655Z,7.53
2018-05-25T21:49:51.272Z,7.40
2018-05-25T21:52:24.992Z,7.20
2018-05-25T21:54:58.603Z,7.67
2018-05-25T21:57:32.227Z,7.17
2018-05-25T22:00:05.785Z,7.40
2018-05-25T22:02:39.452Z,8.10
2018-05-25T22:05:13.272Z,7.60
2018-05-25T22:07:46.892Z,8.00
2018-05-25T22:10:20.560Z,8.20
2018-05-25T22:12:54.064Z,7.23
2018-05-25T22:15:27.725Z,8.50
2018-05-25T22:18:01.307Z,7.97
2018-05-25T22:20:34.872Z,7.60
2018-05-25T22:23:08.624Z,8.50
2018-05-25T22:25:42.367Z,8.27
2018-05-25T22:28:15.922Z,8.23
2018-05-25T22:30:49.697Z,7.70
2018-05-25T22:33:23.453Z,7.67
2018-05-25T22:35:57.063Z,7.93
2018-05-25T22:38:30.597Z,8.10
2018-05-25T22:41:04.264Z,8.37
2018-05-25T22:43:49.759Z,7.83
2018-05-25T22:46:35.376Z,7.93
2018-05-25T22:49:21.001Z,7.27
2018-05-25T22:52:06.608Z,7.77
2018-05-25T22:54:41.952Z,8.53
2018-05-25T22:57:15.657Z,8.37
2018-05-25T22:59:49.296Z,7.90
2018-05-25T23:02:22.789Z,8.20
2018-05-25T23:04:56.580Z,8.07
2018-05-25T23:07:30.317Z,7.83
2018-05-25T23:10:04.029Z,8.70
2018-05-25T23:12:37.565Z,8.40
2018-05-25T23:15:11.176Z,9.20
2018-05-25T23:17:44.917Z,8.57
2018-05-25T23:20:18.482Z,8.00
2018-05-25T23:22:52.028Z,8.87
2018-05-25T23:25:25.877Z,8.17
2018-05-25T23:27:59.408Z,8.00
2018-05-25T23:30:33.188Z,7.80
2018-05-25T23:33:06.727Z,7.77
2018-05-25T23:35:40.407Z,8.73
2018-05-25T23:38:14.143Z,7.90
2018-05-25T23:40:47.801Z,8.00
2018-05-25T23:43:21.419Z,8.20
2018-05-25T23:45:54.974Z,8.07
2018-05-25T23:48:28.734Z,8.13
2018-05-25T23:51:02.493Z,8.03
2018-05-25T23:53:36.017Z,8.30
2018-05-25T23:56:09.544Z,8.23
2018-05-25T23:58:43.233Z,8.30
